• Join FlightAware (Why Join?)
  • Login
  • US Flag 
06:37AM EDT


 

Airport Tracker/Info


-or-


 

Live Flight TrackerFlight Track Log ✈ USC105 ✈ 30-Aug-2013 ✈ KYIP - KLCK

Flight Track Log - Related Links

Times and Time Zones

All times are in EDT time to prevent confusion due to time zone crossing. See the USC105 flight status page for this flight to view local times or setup timezone preferences in your user account.

Time Position Orientation Groundspeed Altitude Reporting Facility
EDT Latitude Longitude Course Direction KTS MPH feet Rate Location/Type
07:26AM 42.2128 -83.5717 211° Southwest 104 120 2,600  Level Cleveland Center
07:27AM 42.1853 -83.5900 206° Southwest 144 166 3,100 240 Climbing Cleveland Center
07:28AM 42.1492 -83.6136 206° Southwest 153 176 3,100  Level Cleveland Center
07:29AM 42.1056 -83.6086 175° South 169 194 3,100  Level Cleveland Center
07:30AM 42.0625 -83.5844 157° South 171 197 3,100 360 Level Cleveland Center
07:32AM 41.9337 -83.5456 167° South  Level Estimated
07:39AM 41.2485 -83.4896 204° Southwest  Level FlightAware Approximate
07:40AM 41.1541 -83.5442 204° Southwest  Level FlightAware Approximate
07:40AM 41.6619 -83.4097 161° South 175 201 7,100  Level Indianapolis Center
07:41AM 41.1089 -83.5229 161° South  Level Estimated
07:41AM 41.6131 -83.3950 167° South 177 204 7,100  Level Indianapolis Center
07:42AM 41.0637 -83.5017 161° South  Level Estimated
07:42AM 41.5625 -83.3808 168° South 181 208 7,100  Level Indianapolis Center
07:43AM 41.0185 -83.4806 161° South  Level Estimated
07:43AM 41.5133 -83.3669 168° South 180 207 7,100  Level Indianapolis Center
07:44AM 40.9733 -83.4594 161° South  Level Estimated
07:44AM 41.4625 -83.3556 170° South 182 209 7,100  Level Indianapolis Center
07:45AM 40.9280 -83.4383 161° South  Level Estimated
07:45AM 41.4114 -83.3417 168° South 184 212 7,100  Level Indianapolis Center
07:46AM 41.3597 -83.3278 169° South 187 215 7,100  Level Indianapolis Center
07:47AM 41.3006 -83.3128 169° South 187 215 7,100  Level Indianapolis Center
07:48AM 41.2500 -83.2994 169° South 184 212 7,100  Level Indianapolis Center
07:49AM 41.1989 -83.2867 169° South 184 212 7,100  Level Indianapolis Center
07:50AM 41.1486 -83.2736 169° South 183 211 7,100  Level Indianapolis Center
07:51AM 41.0986 -83.2594 168° South 182 209 7,100  Level Indianapolis Center
07:52AM 41.0481 -83.2508 173° South 182 209 7,100  Level Indianapolis Center
07:53AM 40.9972 -83.2392 170° South 183 211 7,100  Level Indianapolis Center
07:54AM 40.9475 -83.2256 168° South 182 209 7,100  Level Indianapolis Center
07:55AM 40.8975 -83.2119 168° South 181 208 7,100  Level Indianapolis Center
07:56AM 40.8472 -83.2006 170° South 181 208 7,100  Level Indianapolis Center
07:57AM 40.7969 -83.1872 169° South 183 211 7,100  Level Indianapolis Center
07:58AM 40.7400 -83.1725 169° South 180 207 7,100  Level Indianapolis Center
07:59AM 40.6897 -83.1583 168° South 182 209 7,100 -60 Level Indianapolis Center
08:00AM 40.6383 -83.1464 170° South 185 213 7,000 -60 Descending Indianapolis Center
08:01AM 40.5883 -83.1333 169° South 183 211 7,000  Level Indianapolis Center
08:02AM 40.5386 -83.1189 168° South 183 211 7,100  Climbing Indianapolis Center
08:03AM 40.4908 -83.1069 169° South 181 208 7,000 -60 Descending Indianapolis Center
08:05AM 40.4400 -83.0939 169° South 184 212 7,000 60 Level Indianapolis Center
08:05AM 40.4008 -83.0922 178° South 184 212 7,100  Climbing Indianapolis Center
08:06AM 40.3456 -83.0969 184° South 183 211 7,000  Descending Indianapolis Center
08:07AM 40.2994 -83.0975 181° South 183 211 7,100  Climbing Indianapolis Center
08:08AM 40.2514 -83.0953 178° South 184 212 7,100 -120 Level Indianapolis Center
08:09AM 40.2253 -83.0958 181° South 183 211 7,000 -120 Descending Indianapolis Center
08:10AM 40.1739 -83.0961 180° South 184 212 7,000  Level Indianapolis Center
08:11AM 40.1228 -83.0956 180° South 183 211 7,100 60 Climbing Indianapolis Center
08:11AM 40.0914 -83.0967 182° South 184 212 7,100  Level Indianapolis Center
08:12AM 40.0344 -83.0983 181° South 179 206 7,100  Level Indianapolis Center
08:13AM 39.9928 -83.0969 179° South 172 198 7,100 -120 Level Indianapolis Center
08:14AM 39.9744 -83.0958 177° South 171 197 7,000 -540 Descending Indianapolis Center
08:14AM 39.9444 -83.0972 182° South 167 192 6,600 -720 Descending Indianapolis Center
08:15AM 39.9261 -83.0956 176° South 172 198 6,300 -1,080 Descending Indianapolis Center
08:15AM 39.8878 -83.0961 181° South 189 217 5,400 -1,200 Descending Indianapolis Center
08:16AM 39.8331 -83.0956 180° South 181 208 4,300 -1,080 Descending Indianapolis Center
08:18AM 39.7747 -83.0914 177° South 175 201 3,100 -720 Descending Indianapolis Center
08:18AM 39.7439 -83.1056 199° South 157 181 3,000 -120 Descending Indianapolis Center
08:19AM 39.7281 -83.1197 215° Southwest 152 175 3,000  Level Indianapolis Center
08:19AM 39.7100 -83.1083 154° Southeast 147 169 3,000  Level Indianapolis Center
08:20AM 39.7106 -83.0806 89° East 147 169 3,000  Level Indianapolis Center
08:20AM 39.7197 -83.0528 67° East 156 180 3,000 -240 Level Indianapolis Center
08:21AM 39.7333 -83.0342 46° Northeast 151 174 2,800 -660 Descending Indianapolis Center
08:22AM 39.7531 -83.0117 41° Northeast 151 174 2,300 -840 Descending Indianapolis Center
08:23AM 39.7794 -82.9753 47° Northeast 139 160 1,500 -540 Descending Indianapolis Center
08:24AM 39.8164 -82.9294 44° Northeast 141 162 1,100 -300 Descending Indianapolis Center